Gray Army Air Field Fort Lewis,Tacoma US
ICAO: KGRF
IATA: GRF
Category: Medium
Scheduled Services: No

Elevation: 300 ft
TransAlt. 18000 ft.

Airport Communications:
SEATTLE APP/DEP:120.1
ATIS:124.65
CTAF:119.325
GND/CLNC DEL:121.9
AR OPS:36.1
ARNG OPS:36.55
OPS:32.3
PMSV METRO:134.1
BULLSEYE RDO:36.7
TWR:119.325

KGRF Zoom In..

If you have problems with the map follow the link
https://www.worldairports.se/pages/airport.php?
ICAO=KGRF

Runways:

(A) RW 15 length 6125 ft width 150 ft
ILS 108.30 / hdg 151

(B) RW 33 length 6125 ft width 150 ft
---- / hdg 331

Location; KGRF
Day. 11 / Time. 13.08 Zulu
* Altimeter: 30.05
* Temperature: 05° c. 41°f.
* Wind from: 000° Speed 00 kn.
Dewpoint: 05° c.
Visibility: 10 Statute Miles.
Clouds: Few 400 ft.
Clouds: Scattered 2000 ft.
Clouds: Overcast 4200 ft.

KGRF 111308Z 00000KT 10SM FEW004 SCT020 OVC042 05/05 A3005 RMK AO2A SLP182 $


Wind - Calm.

 
 
jpsmedia worldairports.se 2019   terms of use